Terminal Aerodrome Forecast
Issued by NWS

Home | Current Version | Previous Version | Text Only | Print | Product List | Glossary Off
Versions: 1 2 3 4 5 6 7 8 9 10 11 12 13 14 15 16 17 18 19

000
FTUS43 KMPX 291724
TAFAXN
TAF
KAXN 291724Z 2918/3018 36015G21KT 6SM -RA BR BKN009 OVC015
     FM292000 36015G25KT P6SM VCSH SCT012 OVC020
     FM300200 36012KT P6SM SCT025 BKN100
     FM300600 36010KT P6SM SCT250
     FM301500 02011KT P6SM FEW040=

USA.gov is the U.S. government's official web portal to all federal, state and local government web resources and services.